CFG7AP LGIR-EDDF
Flight info
| Callsign | CFG7AP |
|---|---|
| Flight time | 3h 0m |
| Altitude | 34000 |
| Route | EPALO UM749 DIRMI UL613 XANIS DCT DIMIS DCT PETAK DCT GLOMY DCT ELTIB DCT TUPUS DCT GORPA DCT SIMBA DCT AKINI T161 DEBHI DEBHI1C |
| Aircraft | A321/M-SDE2E3FGHIJ1RWXYZ/LB1 |
Departure
| Time | 2026-05-01 12:28 |
|---|---|
| Airport | Heraklion International Nikos Kazantzakis Airport (LGIR) |
Arrival
| Time | 2026-05-01 15:29 |
|---|---|
| Airport | Frankfurt Main Airport (EDDF) |
| Time | Latitude | Longitude | Altitude | Speed | Heading |
|---|---|---|---|---|---|
| 2026-05-01 11:46 | 35.33852 | 25.17553 | 89 ft | 0 kts | 271° |
| 2026-05-01 12:23 | 35.33852 | 25.17549 | 88 ft | 3 kts | 271° |
| 2026-05-01 12:24 | 35.33869 | 25.17505 | 90 ft | 6 kts | 326° |
| 2026-05-01 12:24 | 35.33901 | 25.17514 | 91 ft | 3 kts | 41° |
| 2026-05-01 12:24 | 35.33909 | 25.17549 | 89 ft | 6 kts | 86° |
| 2026-05-01 12:24 | 35.33904 | 25.17621 | 92 ft | 11 kts | 95° |
| 2026-05-01 12:25 | 35.33896 | 25.17732 | 95 ft | 15 kts | 95° |
| 2026-05-01 12:25 | 35.33880 | 25.17970 | 100 ft | 15 kts | 95° |
| 2026-05-01 12:25 | 35.33871 | 25.18094 | 101 ft | 13 kts | 95° |
| 2026-05-01 12:26 | 35.33864 | 25.18197 | 104 ft | 14 kts | 95° |
| 2026-05-01 12:26 | 35.33843 | 25.18490 | 108 ft | 17 kts | 94° |
| 2026-05-01 12:26 | 35.33833 | 25.18641 | 111 ft | 17 kts | 95° |
| 2026-05-01 12:27 | 35.33824 | 25.18767 | 113 ft | 13 kts | 94° |
| 2026-05-01 12:27 | 35.33843 | 25.18978 | 115 ft | 14 kts | 50° |
| 2026-05-01 12:28 | 35.33932 | 25.18661 | 110 ft | 66 kts | 275° |
| 2026-05-01 12:28 | 35.33989 | 25.17820 | 97 ft | 129 kts | 275° |
| 2026-05-01 12:28 | 35.34209 | 25.15226 | 1006 ft | 152 kts | 293° |
| 2026-05-01 12:29 | 35.34880 | 25.14243 | 1373 ft | 160 kts | 334° |
| 2026-05-01 12:29 | 35.36003 | 25.13856 | 1562 ft | 177 kts | 347° |
| 2026-05-01 12:29 | 35.38668 | 25.12988 | 1936 ft | 219 kts | 345° |
| 2026-05-01 12:30 | 35.41835 | 25.11837 | 2891 ft | 246 kts | 343° |
| 2026-05-01 12:30 | 35.43490 | 25.11231 | 3589 ft | 252 kts | 343° |
| 2026-05-01 12:30 | 35.44612 | 25.10821 | 4022 ft | 255 kts | 342° |
| 2026-05-01 12:31 | 35.46338 | 25.10190 | 4693 ft | 263 kts | 342° |
| 2026-05-01 12:31 | 35.48108 | 25.09542 | 5451 ft | 267 kts | 340° |
| 2026-05-01 12:31 | 35.49897 | 25.08892 | 6176 ft | 270 kts | 340° |
| 2026-05-01 12:31 | 35.52297 | 25.08023 | 7052 ft | 273 kts | 339° |
| 2026-05-01 12:32 | 35.54127 | 25.07358 | 7701 ft | 275 kts | 339° |
| 2026-05-01 12:32 | 35.57226 | 25.06232 | 8792 ft | 279 kts | 339° |
| 2026-05-01 12:32 | 35.59094 | 25.05553 | 9438 ft | 282 kts | 339° |
| 2026-05-01 12:33 | 35.60981 | 25.04869 | 10078 ft | 284 kts | 338° |
| 2026-05-01 12:33 | 35.62917 | 25.04165 | 10341 ft | 300 kts | 339° |
| 2026-05-01 12:33 | 35.64985 | 25.03405 | 10468 ft | 320 kts | 339° |
| 2026-05-01 12:33 | 35.67182 | 25.02598 | 10589 ft | 339 kts | 339° |
| 2026-05-01 12:34 | 35.69470 | 25.01762 | 10770 ft | 354 kts | 339° |
| 2026-05-01 12:34 | 35.71852 | 25.00887 | 11252 ft | 359 kts | 338° |
| 2026-05-01 12:34 | 35.74223 | 24.99899 | 11816 ft | 361 kts | 336° |
| 2026-05-01 12:34 | 35.76614 | 24.98796 | 12401 ft | 363 kts | 334° |
| 2026-05-01 12:35 | 35.78971 | 24.97655 | 12977 ft | 365 kts | 334° |
| 2026-05-01 12:35 | 35.81340 | 24.96491 | 13553 ft | 368 kts | 333° |
| 2026-05-01 12:35 | 35.83729 | 24.95323 | 14091 ft | 371 kts | 334° |
| 2026-05-01 12:35 | 35.86140 | 24.94164 | 14585 ft | 373 kts | 334° |
| 2026-05-01 12:36 | 35.88575 | 24.93012 | 15071 ft | 376 kts | 334° |
| 2026-05-01 12:36 | 35.91027 | 24.91859 | 15557 ft | 378 kts | 334° |
| 2026-05-01 12:36 | 35.93461 | 24.90715 | 16040 ft | 380 kts | 334° |
| 2026-05-01 12:36 | 35.95972 | 24.89532 | 16526 ft | 383 kts | 334° |
| 2026-05-01 12:37 | 35.98437 | 24.88371 | 16987 ft | 385 kts | 333° |
| 2026-05-01 12:37 | 36.00949 | 24.87184 | 17441 ft | 388 kts | 333° |
| 2026-05-01 12:37 | 36.03476 | 24.85985 | 17896 ft | 390 kts | 333° |
| 2026-05-01 12:37 | 36.05896 | 24.84510 | 18329 ft | 386 kts | 323° |
| 2026-05-01 12:38 | 36.08058 | 24.82573 | 18714 ft | 384 kts | 316° |
| 2026-05-01 12:38 | 36.10139 | 24.80500 | 19130 ft | 385 kts | 316° |
| 2026-05-01 12:38 | 36.12227 | 24.78422 | 19573 ft | 385 kts | 316° |
| 2026-05-01 12:38 | 36.14321 | 24.76344 | 19975 ft | 386 kts | 316° |
| 2026-05-01 12:39 | 36.16421 | 24.74263 | 20388 ft | 387 kts | 316° |
| 2026-05-01 12:39 | 36.18525 | 24.72178 | 20804 ft | 388 kts | 315° |
| 2026-05-01 12:39 | 36.20635 | 24.70084 | 21217 ft | 389 kts | 315° |
| 2026-05-01 12:39 | 36.22747 | 24.67985 | 21630 ft | 390 kts | 315° |
| 2026-05-01 12:40 | 36.24864 | 24.65876 | 22068 ft | 391 kts | 315° |
| 2026-05-01 12:40 | 36.26988 | 24.63759 | 22464 ft | 392 kts | 315° |
| 2026-05-01 12:40 | 36.29116 | 24.61636 | 22857 ft | 393 kts | 315° |
| 2026-05-01 12:40 | 36.31252 | 24.59504 | 23250 ft | 395 kts | 315° |
| 2026-05-01 12:41 | 36.33390 | 24.57370 | 23638 ft | 396 kts | 314° |
| 2026-05-01 12:41 | 36.35539 | 24.55225 | 23948 ft | 397 kts | 314° |
| 2026-05-01 12:41 | 36.37693 | 24.53079 | 24265 ft | 398 kts | 314° |
| 2026-05-01 12:41 | 36.39853 | 24.50926 | 24582 ft | 399 kts | 314° |
| 2026-05-01 12:42 | 36.42017 | 24.48764 | 24896 ft | 400 kts | 314° |
| 2026-05-01 12:42 | 36.44182 | 24.46592 | 25203 ft | 400 kts | 314° |
| 2026-05-01 12:42 | 36.46349 | 24.44412 | 25504 ft | 401 kts | 314° |
| 2026-05-01 12:42 | 36.48521 | 24.42228 | 25796 ft | 402 kts | 314° |
| 2026-05-01 12:43 | 36.50699 | 24.40043 | 26076 ft | 403 kts | 314° |
| 2026-05-01 12:43 | 36.52887 | 24.37851 | 26383 ft | 404 kts | 314° |
| 2026-05-01 12:43 | 36.55079 | 24.35654 | 26701 ft | 405 kts | 314° |
| 2026-05-01 12:43 | 36.57271 | 24.33452 | 26984 ft | 406 kts | 314° |
| 2026-05-01 12:44 | 36.59469 | 24.31238 | 27269 ft | 407 kts | 314° |
| 2026-05-01 12:44 | 36.61667 | 24.29018 | 27555 ft | 407 kts | 314° |
| 2026-05-01 12:44 | 36.66068 | 24.24573 | 28219 ft | 406 kts | 314° |
| 2026-05-01 12:45 | 36.70428 | 24.20166 | 29004 ft | 401 kts | 314° |
| 2026-05-01 12:45 | 36.72591 | 24.17981 | 29392 ft | 399 kts | 314° |
| 2026-05-01 12:45 | 36.74745 | 24.15801 | 29767 ft | 397 kts | 313° |
| 2026-05-01 12:46 | 36.76882 | 24.13634 | 30130 ft | 395 kts | 313° |
| 2026-05-01 12:46 | 36.79011 | 24.11472 | 30438 ft | 394 kts | 313° |
| 2026-05-01 12:46 | 36.81134 | 24.09320 | 30722 ft | 393 kts | 313° |
| 2026-05-01 12:46 | 36.83252 | 24.07174 | 31051 ft | 392 kts | 313° |
| 2026-05-01 12:47 | 36.85365 | 24.05033 | 31335 ft | 391 kts | 313° |
| 2026-05-01 12:47 | 36.87472 | 24.02894 | 31607 ft | 390 kts | 313° |
| 2026-05-01 12:47 | 36.89570 | 24.00761 | 31904 ft | 389 kts | 313° |
| 2026-05-01 12:47 | 36.91666 | 23.98628 | 32184 ft | 388 kts | 313° |
| 2026-05-01 12:48 | 36.93757 | 23.96499 | 32454 ft | 387 kts | 313° |
| 2026-05-01 12:48 | 36.95845 | 23.94374 | 32715 ft | 387 kts | 313° |
| 2026-05-01 12:48 | 36.97929 | 23.92250 | 32984 ft | 386 kts | 313° |
| 2026-05-01 12:48 | 37.00008 | 23.90126 | 33264 ft | 385 kts | 312° |
| 2026-05-01 12:49 | 37.02083 | 23.88003 | 33514 ft | 385 kts | 312° |
| 2026-05-01 12:49 | 37.04154 | 23.85886 | 33778 ft | 384 kts | 312° |
| 2026-05-01 12:49 | 37.06195 | 23.83798 | 34018 ft | 384 kts | 312° |
| 2026-05-01 12:49 | 37.08260 | 23.81683 | 34112 ft | 383 kts | 312° |
| 2026-05-01 12:50 | 37.12380 | 23.77464 | 34118 ft | 383 kts | 312° |
| 2026-05-01 12:50 | 37.16502 | 23.73238 | 34115 ft | 383 kts | 312° |
| 2026-05-01 12:51 | 37.20627 | 23.68988 | 34120 ft | 384 kts | 312° |
| 2026-05-01 12:52 | 37.26832 | 23.62616 | 34126 ft | 384 kts | 312° |
| 2026-05-01 12:52 | 37.33033 | 23.56233 | 34135 ft | 384 kts | 312° |
| 2026-05-01 12:53 | 37.39223 | 23.49828 | 34175 ft | 384 kts | 312° |
| 2026-05-01 12:54 | 37.43353 | 23.45544 | 34168 ft | 385 kts | 312° |
| 2026-05-01 12:54 | 37.49566 | 23.39092 | 34142 ft | 387 kts | 312° |
| 2026-05-01 12:55 | 37.55801 | 23.32613 | 34139 ft | 388 kts | 312° |
| 2026-05-01 12:56 | 37.59960 | 23.28282 | 34136 ft | 388 kts | 312° |
| 2026-05-01 12:56 | 37.64121 | 23.23950 | 34138 ft | 388 kts | 312° |
| 2026-05-01 12:57 | 37.68280 | 23.19606 | 34171 ft | 388 kts | 311° |
| 2026-05-01 12:57 | 37.74488 | 23.13098 | 34156 ft | 386 kts | 311° |
| 2026-05-01 12:58 | 37.78621 | 23.08764 | 34150 ft | 386 kts | 311° |
| 2026-05-01 12:59 | 37.84819 | 23.02259 | 34151 ft | 386 kts | 311° |
| 2026-05-01 12:59 | 37.91008 | 22.95745 | 34158 ft | 386 kts | 311° |
| 2026-05-01 13:00 | 37.97067 | 22.89091 | 34171 ft | 379 kts | 309° |
| 2026-05-01 13:01 | 38.02815 | 22.82280 | 34161 ft | 377 kts | 308° |
| 2026-05-01 13:02 | 38.08595 | 22.75492 | 34172 ft | 378 kts | 309° |
| 2026-05-01 13:07 | 38.50947 | 22.26005 | 34172 ft | 375 kts | 309° |
| 2026-05-01 13:08 | 38.54775 | 22.21484 | 34165 ft | 375 kts | 308° |
| 2026-05-01 13:08 | 38.58630 | 22.16993 | 34158 ft | 376 kts | 310° |
| 2026-05-01 13:09 | 38.62707 | 22.12750 | 34187 ft | 380 kts | 312° |
| 2026-05-01 13:09 | 38.66863 | 22.08584 | 34175 ft | 379 kts | 312° |
| 2026-05-01 13:10 | 38.70992 | 22.04388 | 34153 ft | 378 kts | 312° |
| 2026-05-01 13:10 | 38.75076 | 22.00161 | 34143 ft | 377 kts | 311° |
| 2026-05-01 13:11 | 38.79140 | 21.95921 | 34181 ft | 377 kts | 312° |
| 2026-05-01 13:11 | 38.83212 | 21.91676 | 34139 ft | 378 kts | 312° |
| 2026-05-01 13:12 | 38.87303 | 21.87414 | 34136 ft | 380 kts | 311° |
| 2026-05-01 13:12 | 38.91407 | 21.83128 | 34145 ft | 381 kts | 312° |
| 2026-05-01 13:13 | 38.95517 | 21.78838 | 34128 ft | 381 kts | 312° |
| 2026-05-01 13:13 | 38.99633 | 21.74534 | 34116 ft | 382 kts | 312° |
| 2026-05-01 13:14 | 39.03759 | 21.70211 | 34129 ft | 383 kts | 312° |
| 2026-05-01 13:14 | 39.07889 | 21.65868 | 34147 ft | 383 kts | 312° |
| 2026-05-01 13:15 | 39.12032 | 21.61509 | 34143 ft | 385 kts | 312° |
| 2026-05-01 13:15 | 39.15491 | 21.57880 | 34143 ft | 387 kts | 312° |
| 2026-05-01 13:16 | 39.19674 | 21.53463 | 34116 ft | 386 kts | 312° |
| 2026-05-01 13:16 | 39.23808 | 21.49091 | 34130 ft | 387 kts | 312° |
| 2026-05-01 13:17 | 39.32171 | 21.40241 | 34114 ft | 387 kts | 312° |
| 2026-05-01 13:18 | 39.38420 | 21.33620 | 34129 ft | 390 kts | 313° |
| 2026-05-01 13:18 | 39.42626 | 21.29144 | 34128 ft | 393 kts | 313° |
| 2026-05-01 13:19 | 39.46810 | 21.24679 | 34102 ft | 392 kts | 312° |
| 2026-05-01 13:20 | 39.53147 | 21.17916 | 34110 ft | 395 kts | 313° |
| 2026-05-01 13:20 | 39.57384 | 21.13397 | 34111 ft | 395 kts | 313° |
| 2026-05-01 13:21 | 39.63752 | 21.06572 | 34091 ft | 398 kts | 314° |
| 2026-05-01 13:21 | 39.68029 | 21.01966 | 34078 ft | 400 kts | 313° |
| 2026-05-01 13:22 | 39.72317 | 20.97344 | 34066 ft | 401 kts | 313° |
| 2026-05-01 13:22 | 39.76617 | 20.92716 | 34068 ft | 402 kts | 313° |
| 2026-05-01 13:23 | 39.80916 | 20.88074 | 34072 ft | 402 kts | 313° |
| 2026-05-01 13:23 | 39.85218 | 20.83418 | 34072 ft | 402 kts | 313° |
| 2026-05-01 13:24 | 39.89527 | 20.78752 | 34089 ft | 404 kts | 314° |
| 2026-05-01 13:25 | 39.96036 | 20.71697 | 34059 ft | 407 kts | 314° |
| 2026-05-01 13:25 | 40.00393 | 20.66960 | 34064 ft | 408 kts | 314° |
| 2026-05-01 13:26 | 40.04752 | 20.62205 | 34073 ft | 409 kts | 314° |
| 2026-05-01 13:26 | 40.09416 | 20.57877 | 34060 ft | 417 kts | 324° |
| 2026-05-01 13:27 | 40.14490 | 20.54176 | 34065 ft | 418 kts | 324° |
| 2026-05-01 13:27 | 40.22120 | 20.48602 | 34074 ft | 420 kts | 324° |
| 2026-05-01 13:28 | 40.29760 | 20.42980 | 34058 ft | 420 kts | 324° |
| 2026-05-01 13:29 | 40.39978 | 20.35447 | 34065 ft | 422 kts | 325° |
| 2026-05-01 13:31 | 40.55367 | 20.24056 | 34069 ft | 423 kts | 325° |
| 2026-05-01 13:32 | 40.68166 | 20.14529 | 34064 ft | 426 kts | 326° |
| 2026-05-01 13:33 | 40.81083 | 20.04864 | 34062 ft | 427 kts | 326° |
| 2026-05-01 13:34 | 40.91443 | 19.97113 | 34075 ft | 429 kts | 326° |
| 2026-05-01 13:35 | 40.99225 | 19.91251 | 34082 ft | 429 kts | 326° |
| 2026-05-01 13:36 | 41.07017 | 19.85368 | 34084 ft | 430 kts | 326° |
| 2026-05-01 13:36 | 41.14814 | 19.79477 | 34092 ft | 430 kts | 327° |
| 2026-05-01 13:37 | 41.20005 | 19.75532 | 34100 ft | 430 kts | 326° |
| 2026-05-01 13:37 | 41.25197 | 19.71580 | 34105 ft | 430 kts | 327° |
| 2026-05-01 13:38 | 41.32984 | 19.65653 | 34107 ft | 430 kts | 327° |
| 2026-05-01 13:39 | 41.38176 | 19.61690 | 34101 ft | 431 kts | 327° |
| 2026-05-01 13:39 | 41.43414 | 19.57697 | 34104 ft | 431 kts | 327° |
| 2026-05-01 13:40 | 41.48575 | 19.53744 | 34097 ft | 431 kts | 327° |
| 2026-05-01 13:40 | 41.53766 | 19.49746 | 34112 ft | 431 kts | 327° |
| 2026-05-01 13:41 | 41.58962 | 19.45740 | 34108 ft | 432 kts | 328° |
| 2026-05-01 13:41 | 41.64163 | 19.41732 | 34124 ft | 431 kts | 328° |
| 2026-05-01 13:42 | 41.69367 | 19.37723 | 34133 ft | 431 kts | 328° |
| 2026-05-01 13:42 | 41.74561 | 19.33706 | 34137 ft | 431 kts | 327° |
| 2026-05-01 13:43 | 41.79708 | 19.29606 | 34153 ft | 430 kts | 326° |
| 2026-05-01 13:43 | 41.84701 | 19.25160 | 34136 ft | 431 kts | 324° |
| 2026-05-01 13:44 | 41.89647 | 19.20585 | 34133 ft | 432 kts | 324° |
| 2026-05-01 13:44 | 41.94624 | 19.16048 | 34133 ft | 433 kts | 325° |
| 2026-05-01 13:45 | 41.99632 | 19.11549 | 34130 ft | 433 kts | 325° |
| 2026-05-01 13:45 | 42.04645 | 19.07045 | 34143 ft | 434 kts | 326° |
| 2026-05-01 13:46 | 42.09666 | 19.02535 | 34141 ft | 434 kts | 326° |
| 2026-05-01 13:46 | 42.14685 | 18.97997 | 34148 ft | 435 kts | 326° |
| 2026-05-01 13:47 | 42.19703 | 18.93444 | 34155 ft | 435 kts | 326° |
| 2026-05-01 13:47 | 42.24717 | 18.88892 | 34154 ft | 434 kts | 326° |
| 2026-05-01 13:48 | 42.29727 | 18.84341 | 34150 ft | 434 kts | 326° |
| 2026-05-01 13:48 | 42.34733 | 18.79774 | 34152 ft | 434 kts | 326° |
| 2026-05-01 13:49 | 42.39744 | 18.75197 | 34143 ft | 435 kts | 327° |
| 2026-05-01 13:49 | 42.44754 | 18.70602 | 34156 ft | 435 kts | 326° |
| 2026-05-01 13:50 | 42.49766 | 18.66002 | 34161 ft | 435 kts | 327° |
| 2026-05-01 13:50 | 42.54773 | 18.61409 | 34156 ft | 435 kts | 327° |
| 2026-05-01 13:51 | 42.59782 | 18.56796 | 34157 ft | 435 kts | 327° |
| 2026-05-01 13:51 | 42.64783 | 18.52181 | 34169 ft | 435 kts | 327° |
| 2026-05-01 13:52 | 42.69782 | 18.47554 | 34178 ft | 434 kts | 327° |
| 2026-05-01 13:52 | 42.74768 | 18.42931 | 34173 ft | 434 kts | 327° |
| 2026-05-01 13:53 | 42.79759 | 18.38306 | 34159 ft | 434 kts | 328° |
| 2026-05-01 13:53 | 42.87237 | 18.31361 | 34166 ft | 434 kts | 328° |
| 2026-05-01 13:54 | 42.92217 | 18.26707 | 34181 ft | 434 kts | 328° |
| 2026-05-01 13:54 | 42.97160 | 18.22074 | 34168 ft | 434 kts | 328° |
| 2026-05-01 13:55 | 43.02146 | 18.17404 | 34171 ft | 435 kts | 328° |
| 2026-05-01 13:55 | 43.07132 | 18.12710 | 34176 ft | 436 kts | 327° |
| 2026-05-01 13:56 | 43.12079 | 18.07909 | 34183 ft | 436 kts | 327° |
| 2026-05-01 13:56 | 43.17008 | 18.03080 | 34183 ft | 436 kts | 327° |
| 2026-05-01 13:57 | 43.21109 | 17.99066 | 34182 ft | 436 kts | 328° |
| 2026-05-01 13:57 | 43.26889 | 17.93434 | 34178 ft | 436 kts | 328° |
| 2026-05-01 13:58 | 43.31835 | 17.88604 | 34187 ft | 436 kts | 327° |
| 2026-05-01 13:58 | 43.36781 | 17.83770 | 34189 ft | 436 kts | 328° |
| 2026-05-01 13:59 | 43.40888 | 17.79745 | 34213 ft | 436 kts | 327° |
| 2026-05-01 13:59 | 43.45820 | 17.74891 | 34218 ft | 436 kts | 327° |
| 2026-05-01 14:00 | 43.50754 | 17.70030 | 34198 ft | 437 kts | 328° |
| 2026-05-01 14:00 | 43.55700 | 17.65155 | 34202 ft | 437 kts | 328° |
| 2026-05-01 14:01 | 43.60643 | 17.60260 | 34211 ft | 438 kts | 327° |
| 2026-05-01 14:01 | 43.65589 | 17.55347 | 34231 ft | 438 kts | 329° |
| 2026-05-01 14:02 | 43.70526 | 17.50442 | 34244 ft | 437 kts | 329° |
| 2026-05-01 14:02 | 43.75459 | 17.45541 | 34222 ft | 436 kts | 329° |
| 2026-05-01 14:03 | 43.80378 | 17.40637 | 34241 ft | 436 kts | 329° |
| 2026-05-01 14:03 | 43.85257 | 17.35758 | 34247 ft | 434 kts | 329° |
| 2026-05-01 14:04 | 43.90161 | 17.30837 | 34243 ft | 436 kts | 329° |
| 2026-05-01 14:04 | 43.95077 | 17.25900 | 34253 ft | 436 kts | 329° |
| 2026-05-01 14:05 | 43.99993 | 17.20963 | 34244 ft | 436 kts | 330° |
| 2026-05-01 14:05 | 44.04897 | 17.16024 | 34264 ft | 435 kts | 330° |
| 2026-05-01 14:06 | 44.09788 | 17.11085 | 34280 ft | 434 kts | 330° |
| 2026-05-01 14:06 | 44.14662 | 17.06150 | 34294 ft | 433 kts | 330° |
| 2026-05-01 14:07 | 44.19524 | 17.01213 | 34304 ft | 432 kts | 331° |
| 2026-05-01 14:08 | 44.26811 | 16.93812 | 34277 ft | 431 kts | 331° |
| 2026-05-01 14:08 | 44.31654 | 16.88879 | 34281 ft | 431 kts | 332° |
| 2026-05-01 14:09 | 44.36462 | 16.83966 | 34290 ft | 431 kts | 332° |
| 2026-05-01 14:09 | 44.41300 | 16.79011 | 34290 ft | 431 kts | 332° |
| 2026-05-01 14:10 | 44.46138 | 16.74047 | 34300 ft | 431 kts | 332° |
| 2026-05-01 14:10 | 44.50972 | 16.69070 | 34287 ft | 431 kts | 332° |
| 2026-05-01 14:11 | 44.55810 | 16.64096 | 34285 ft | 432 kts | 332° |
| 2026-05-01 14:11 | 44.63077 | 16.56583 | 34298 ft | 433 kts | 332° |
| 2026-05-01 14:12 | 44.67923 | 16.51551 | 34304 ft | 433 kts | 332° |
| 2026-05-01 14:12 | 44.72772 | 16.46522 | 34307 ft | 433 kts | 333° |
| 2026-05-01 14:13 | 44.76817 | 16.42329 | 34329 ft | 435 kts | 332° |
| 2026-05-01 14:13 | 44.82504 | 16.36394 | 34337 ft | 435 kts | 332° |
| 2026-05-01 14:14 | 44.87356 | 16.31318 | 34344 ft | 434 kts | 332° |
| 2026-05-01 14:14 | 44.92205 | 16.26240 | 34344 ft | 434 kts | 332° |
| 2026-05-01 14:15 | 44.97048 | 16.21168 | 34307 ft | 433 kts | 332° |
| 2026-05-01 14:15 | 45.01889 | 16.16092 | 34305 ft | 433 kts | 332° |
| 2026-05-01 14:16 | 45.06688 | 16.11038 | 34311 ft | 433 kts | 332° |
| 2026-05-01 14:16 | 45.11510 | 16.05933 | 34328 ft | 433 kts | 332° |
| 2026-05-01 14:17 | 45.16332 | 16.00829 | 34331 ft | 433 kts | 332° |
| 2026-05-01 14:17 | 45.21185 | 15.95694 | 34297 ft | 432 kts | 332° |
| 2026-05-01 14:18 | 45.25969 | 15.90615 | 34309 ft | 432 kts | 331° |
| 2026-05-01 14:18 | 45.29997 | 15.86320 | 34317 ft | 432 kts | 331° |
| 2026-05-01 14:19 | 45.35581 | 15.80353 | 34322 ft | 432 kts | 331° |
| 2026-05-01 14:19 | 45.40384 | 15.75211 | 34325 ft | 432 kts | 331° |
| 2026-05-01 14:20 | 45.47583 | 15.67493 | 34294 ft | 432 kts | 330° |
| 2026-05-01 14:21 | 45.52376 | 15.62337 | 34299 ft | 431 kts | 330° |
| 2026-05-01 14:21 | 45.57160 | 15.57177 | 34310 ft | 431 kts | 330° |
| 2026-05-01 14:22 | 45.64327 | 15.49427 | 34317 ft | 430 kts | 330° |
| 2026-05-01 14:22 | 45.69105 | 15.44264 | 34319 ft | 430 kts | 330° |
| 2026-05-01 14:23 | 45.73877 | 15.39086 | 34321 ft | 430 kts | 330° |
| 2026-05-01 14:23 | 45.78705 | 15.34071 | 34319 ft | 425 kts | 335° |
| 2026-05-01 14:24 | 45.83711 | 15.29562 | 34314 ft | 425 kts | 335° |
| 2026-05-01 14:24 | 45.88720 | 15.25047 | 34313 ft | 425 kts | 335° |
| 2026-05-01 14:25 | 45.93721 | 15.20515 | 34315 ft | 425 kts | 335° |
| 2026-05-01 14:25 | 45.98722 | 15.15973 | 34317 ft | 426 kts | 334° |
| 2026-05-01 14:26 | 46.06206 | 15.09167 | 34325 ft | 426 kts | 334° |
| 2026-05-01 14:27 | 46.11214 | 15.04591 | 34317 ft | 426 kts | 334° |
| 2026-05-01 14:27 | 46.16215 | 15.00017 | 34317 ft | 425 kts | 334° |
| 2026-05-01 14:28 | 46.23707 | 14.93148 | 34319 ft | 425 kts | 334° |
| 2026-05-01 14:28 | 46.28699 | 14.88563 | 34296 ft | 425 kts | 334° |
| 2026-05-01 14:29 | 46.33691 | 14.83962 | 34306 ft | 426 kts | 334° |
| 2026-05-01 14:30 | 46.43677 | 14.74712 | 34321 ft | 426 kts | 334° |
| 2026-05-01 14:31 | 46.51171 | 14.67786 | 34318 ft | 426 kts | 333° |
| 2026-05-01 14:31 | 46.56157 | 14.63136 | 34301 ft | 426 kts | 333° |
| 2026-05-01 14:32 | 46.61143 | 14.58472 | 34309 ft | 426 kts | 333° |
| 2026-05-01 14:32 | 46.66133 | 14.53811 | 34314 ft | 426 kts | 333° |
| 2026-05-01 14:33 | 46.71120 | 14.49145 | 34310 ft | 426 kts | 333° |
| 2026-05-01 14:33 | 46.76113 | 14.44455 | 34316 ft | 427 kts | 333° |
| 2026-05-01 14:34 | 46.81106 | 14.39750 | 34323 ft | 427 kts | 333° |
| 2026-05-01 14:34 | 46.86103 | 14.35037 | 34308 ft | 428 kts | 333° |
| 2026-05-01 14:35 | 46.91100 | 14.30314 | 34311 ft | 428 kts | 332° |
| 2026-05-01 14:35 | 46.96089 | 14.25581 | 34329 ft | 428 kts | 332° |
| 2026-05-01 14:36 | 47.01079 | 14.20841 | 34334 ft | 427 kts | 332° |
| 2026-05-01 14:36 | 47.06062 | 14.16104 | 34339 ft | 427 kts | 332° |
| 2026-05-01 14:37 | 47.11052 | 14.11345 | 34321 ft | 427 kts | 332° |
| 2026-05-01 14:37 | 47.16034 | 14.06577 | 34326 ft | 428 kts | 332° |
| 2026-05-01 14:38 | 47.21025 | 14.01801 | 34334 ft | 428 kts | 332° |
| 2026-05-01 14:38 | 47.26014 | 13.97012 | 34339 ft | 428 kts | 332° |
| 2026-05-01 14:39 | 47.31000 | 13.92210 | 34338 ft | 428 kts | 332° |
| 2026-05-01 14:39 | 47.35988 | 13.87399 | 34339 ft | 428 kts | 332° |
| 2026-05-01 14:40 | 47.40970 | 13.82573 | 34302 ft | 428 kts | 331° |
| 2026-05-01 14:40 | 47.45960 | 13.77735 | 34311 ft | 429 kts | 331° |
| 2026-05-01 14:41 | 47.50960 | 13.72892 | 34323 ft | 430 kts | 331° |
| 2026-05-01 14:41 | 47.55966 | 13.68019 | 34332 ft | 431 kts | 331° |
| 2026-05-01 14:42 | 47.60971 | 13.63124 | 34341 ft | 432 kts | 331° |
| 2026-05-01 14:42 | 47.65983 | 13.58222 | 34338 ft | 431 kts | 331° |
| 2026-05-01 14:43 | 47.70993 | 13.53313 | 34323 ft | 432 kts | 330° |
| 2026-05-01 14:43 | 47.76001 | 13.48390 | 34329 ft | 432 kts | 330° |
| 2026-05-01 14:44 | 47.80984 | 13.43479 | 34333 ft | 433 kts | 330° |
| 2026-05-01 14:44 | 47.88543 | 13.35999 | 34343 ft | 433 kts | 330° |
| 2026-05-01 14:45 | 47.96040 | 13.28578 | 34344 ft | 433 kts | 330° |
| 2026-05-01 14:46 | 48.01059 | 13.23581 | 34341 ft | 433 kts | 330° |
| 2026-05-01 14:46 | 48.08590 | 13.16076 | 34344 ft | 434 kts | 330° |
| 2026-05-01 14:47 | 48.12798 | 13.11870 | 34340 ft | 434 kts | 330° |
| 2026-05-01 14:48 | 48.20328 | 13.04297 | 34356 ft | 434 kts | 330° |
| 2026-05-01 14:48 | 48.26621 | 12.94482 | 34336 ft | 446 kts | 305° |
| 2026-05-01 14:49 | 48.33161 | 12.78614 | 34350 ft | 447 kts | 304° |
| 2026-05-01 14:50 | 48.39659 | 12.62642 | 34359 ft | 448 kts | 304° |
| 2026-05-01 14:51 | 48.44509 | 12.50685 | 34360 ft | 448 kts | 304° |
| 2026-05-01 14:52 | 48.49367 | 12.38658 | 34365 ft | 448 kts | 304° |
| 2026-05-01 14:53 | 48.54214 | 12.26614 | 34358 ft | 448 kts | 304° |
| 2026-05-01 14:53 | 48.57441 | 12.18569 | 34339 ft | 448 kts | 303° |
| 2026-05-01 14:54 | 48.60651 | 12.10521 | 34353 ft | 447 kts | 303° |
| 2026-05-01 14:54 | 48.63857 | 12.02463 | 34355 ft | 447 kts | 303° |
| 2026-05-01 14:55 | 48.67055 | 11.94407 | 34356 ft | 447 kts | 303° |
| 2026-05-01 14:55 | 48.70248 | 11.86339 | 34349 ft | 447 kts | 303° |
| 2026-05-01 14:56 | 48.73440 | 11.78271 | 34339 ft | 446 kts | 303° |
| 2026-05-01 14:56 | 48.76613 | 11.70193 | 34348 ft | 446 kts | 303° |
| 2026-05-01 14:57 | 48.79777 | 11.62103 | 34350 ft | 446 kts | 303° |
| 2026-05-01 14:57 | 48.84522 | 11.49981 | 34348 ft | 445 kts | 303° |
| 2026-05-01 14:58 | 48.87675 | 11.41884 | 34335 ft | 445 kts | 303° |
| 2026-05-01 14:58 | 48.90812 | 11.33780 | 34342 ft | 445 kts | 303° |
| 2026-05-01 14:59 | 48.93951 | 11.25674 | 34342 ft | 444 kts | 303° |
| 2026-05-01 14:59 | 48.97083 | 11.17570 | 34334 ft | 444 kts | 303° |
| 2026-05-01 15:00 | 49.01759 | 11.05388 | 34335 ft | 444 kts | 302° |
| 2026-05-01 15:01 | 49.04865 | 10.97265 | 34204 ft | 444 kts | 302° |
| 2026-05-01 15:01 | 49.06417 | 10.93198 | 33932 ft | 443 kts | 302° |
| 2026-05-01 15:01 | 49.08139 | 10.89311 | 33655 ft | 441 kts | 311° |
| 2026-05-01 15:01 | 49.10208 | 10.85866 | 33110 ft | 441 kts | 318° |
| 2026-05-01 15:02 | 49.12466 | 10.82641 | 32190 ft | 447 kts | 319° |
| 2026-05-01 15:02 | 49.14014 | 10.80460 | 31634 ft | 449 kts | 319° |
| 2026-05-01 15:02 | 49.17084 | 10.76157 | 30370 ft | 457 kts | 319° |
| 2026-05-01 15:02 | 49.19440 | 10.72849 | 29288 ft | 461 kts | 319° |
| 2026-05-01 15:03 | 49.21768 | 10.69455 | 28374 ft | 463 kts | 317° |
| 2026-05-01 15:03 | 49.24019 | 10.65977 | 27805 ft | 456 kts | 316° |
| 2026-05-01 15:03 | 49.26205 | 10.62476 | 27148 ft | 453 kts | 315° |
| 2026-05-01 15:03 | 49.28357 | 10.58977 | 26540 ft | 450 kts | 315° |
| 2026-05-01 15:04 | 49.30495 | 10.55502 | 25917 ft | 446 kts | 315° |
| 2026-05-01 15:04 | 49.32624 | 10.52071 | 25312 ft | 443 kts | 316° |
| 2026-05-01 15:04 | 49.34754 | 10.48672 | 24720 ft | 440 kts | 315° |
| 2026-05-01 15:04 | 49.36732 | 10.45139 | 24381 ft | 435 kts | 308° |
| 2026-05-01 15:05 | 49.38481 | 10.41347 | 24276 ft | 435 kts | 307° |
| 2026-05-01 15:05 | 49.40223 | 10.37554 | 24186 ft | 435 kts | 307° |
| 2026-05-01 15:05 | 49.41963 | 10.33755 | 23998 ft | 434 kts | 307° |
| 2026-05-01 15:05 | 49.43693 | 10.29963 | 23747 ft | 434 kts | 307° |
| 2026-05-01 15:06 | 49.45423 | 10.26160 | 23466 ft | 433 kts | 307° |
| 2026-05-01 15:06 | 49.47142 | 10.22371 | 23190 ft | 431 kts | 307° |
| 2026-05-01 15:06 | 49.48856 | 10.18593 | 22920 ft | 430 kts | 306° |
| 2026-05-01 15:06 | 49.50557 | 10.14832 | 22651 ft | 428 kts | 306° |
| 2026-05-01 15:07 | 49.52254 | 10.11077 | 22389 ft | 427 kts | 307° |
| 2026-05-01 15:07 | 49.53949 | 10.07327 | 22118 ft | 427 kts | 306° |
| 2026-05-01 15:07 | 49.55642 | 10.03581 | 21857 ft | 426 kts | 306° |
| 2026-05-01 15:07 | 49.57333 | 9.99832 | 21614 ft | 425 kts | 306° |
| 2026-05-01 15:08 | 49.59014 | 9.96101 | 21354 ft | 424 kts | 306° |
| 2026-05-01 15:08 | 49.60694 | 9.92364 | 21084 ft | 423 kts | 306° |
| 2026-05-01 15:08 | 49.62366 | 9.88638 | 20832 ft | 423 kts | 306° |
| 2026-05-01 15:08 | 49.64041 | 9.84900 | 20590 ft | 423 kts | 306° |
| 2026-05-01 15:09 | 49.65706 | 9.81176 | 20337 ft | 422 kts | 306° |
| 2026-05-01 15:09 | 49.67371 | 9.77443 | 20087 ft | 421 kts | 305° |
| 2026-05-01 15:09 | 49.69032 | 9.73724 | 19742 ft | 420 kts | 305° |
| 2026-05-01 15:09 | 49.70687 | 9.70020 | 19270 ft | 417 kts | 305° |
| 2026-05-01 15:10 | 49.72326 | 9.66339 | 18789 ft | 414 kts | 305° |
| 2026-05-01 15:10 | 49.75558 | 9.59051 | 17757 ft | 408 kts | 304° |
| 2026-05-01 15:10 | 49.77151 | 9.55445 | 17244 ft | 403 kts | 304° |
| 2026-05-01 15:11 | 49.78728 | 9.51871 | 16737 ft | 401 kts | 304° |
| 2026-05-01 15:11 | 49.81857 | 9.44786 | 15729 ft | 398 kts | 304° |
| 2026-05-01 15:11 | 49.83413 | 9.41250 | 15226 ft | 396 kts | 304° |
| 2026-05-01 15:12 | 49.84956 | 9.37733 | 14735 ft | 393 kts | 303° |
| 2026-05-01 15:12 | 49.87133 | 9.30087 | 13846 ft | 387 kts | 285° |
| 2026-05-01 15:12 | 49.87885 | 9.26086 | 13445 ft | 385 kts | 285° |
| 2026-05-01 15:13 | 49.90160 | 9.14261 | 12307 ft | 379 kts | 285° |
| 2026-05-01 15:14 | 49.91632 | 9.06549 | 11561 ft | 372 kts | 285° |
| 2026-05-01 15:14 | 49.92110 | 9.02645 | 11309 ft | 366 kts | 270° |
| 2026-05-01 15:14 | 49.91649 | 8.94833 | 11311 ft | 364 kts | 262° |
| 2026-05-01 15:15 | 49.91079 | 8.87029 | 11314 ft | 364 kts | 261° |
| 2026-05-01 15:15 | 49.90493 | 8.79220 | 11309 ft | 364 kts | 261° |
| 2026-05-01 15:16 | 49.89898 | 8.71412 | 11299 ft | 364 kts | 261° |
| 2026-05-01 15:16 | 49.89302 | 8.63659 | 10669 ft | 359 kts | 261° |
| 2026-05-01 15:17 | 49.88714 | 8.56040 | 9830 ft | 349 kts | 261° |
| 2026-05-01 15:18 | 49.87915 | 8.45646 | 9388 ft | 295 kts | 261° |
| 2026-05-01 15:18 | 49.87671 | 8.42532 | 8958 ft | 288 kts | 260° |
| 2026-05-01 15:19 | 49.86940 | 8.33435 | 7341 ft | 280 kts | 260° |
| 2026-05-01 15:19 | 49.86461 | 8.27476 | 6294 ft | 277 kts | 259° |
| 2026-05-01 15:19 | 49.86225 | 8.24532 | 5736 ft | 274 kts | 260° |
| 2026-05-01 15:20 | 49.85466 | 8.18785 | 4962 ft | 270 kts | 248° |
| 2026-05-01 15:20 | 49.84880 | 8.16028 | 4596 ft | 271 kts | 253° |
| 2026-05-01 15:20 | 49.84839 | 8.13117 | 4221 ft | 276 kts | 282° |
| 2026-05-01 15:21 | 49.85694 | 8.10489 | 3961 ft | 274 kts | 313° |
| 2026-05-01 15:21 | 49.87204 | 8.08873 | 3934 ft | 258 kts | 343° |
| 2026-05-01 15:21 | 49.88893 | 8.08250 | 3949 ft | 241 kts | 353° |
| 2026-05-01 15:21 | 49.90499 | 8.07980 | 3941 ft | 226 kts | 6° |
| 2026-05-01 15:22 | 49.93211 | 8.09472 | 3939 ft | 195 kts | 42° |
| 2026-05-01 15:22 | 49.94144 | 8.10940 | 3966 ft | 189 kts | 58° |
| 2026-05-01 15:22 | 49.94754 | 8.12709 | 3949 ft | 185 kts | 75° |
| 2026-05-01 15:23 | 49.95208 | 8.14578 | 3945 ft | 185 kts | 74° |
| 2026-05-01 15:23 | 49.95665 | 8.16448 | 3940 ft | 185 kts | 73° |
| 2026-05-01 15:23 | 49.96120 | 8.18316 | 3949 ft | 185 kts | 74° |
| 2026-05-01 15:23 | 49.96575 | 8.20185 | 3951 ft | 184 kts | 73° |
| 2026-05-01 15:24 | 49.97025 | 8.22038 | 3950 ft | 183 kts | 73° |
| 2026-05-01 15:24 | 49.97476 | 8.23894 | 3889 ft | 184 kts | 73° |
| 2026-05-01 15:24 | 49.97926 | 8.25747 | 3704 ft | 183 kts | 72° |
| 2026-05-01 15:24 | 49.98372 | 8.27588 | 3466 ft | 180 kts | 72° |
| 2026-05-01 15:25 | 49.98813 | 8.29411 | 3212 ft | 180 kts | 72° |
| 2026-05-01 15:25 | 49.99254 | 8.31229 | 2959 ft | 180 kts | 73° |
| 2026-05-01 15:25 | 49.99691 | 8.33039 | 2700 ft | 178 kts | 72° |
| 2026-05-01 15:25 | 50.00109 | 8.34760 | 2470 ft | 163 kts | 73° |
| 2026-05-01 15:26 | 50.00490 | 8.36337 | 2247 ft | 151 kts | 73° |
| 2026-05-01 15:26 | 50.00861 | 8.37788 | 2019 ft | 145 kts | 71° |
| 2026-05-01 15:26 | 50.01219 | 8.39243 | 1860 ft | 143 kts | 74° |
| 2026-05-01 15:26 | 50.01555 | 8.40686 | 1653 ft | 143 kts | 74° |
| 2026-05-01 15:27 | 50.01896 | 8.42115 | 1426 ft | 141 kts | 74° |
| 2026-05-01 15:27 | 50.02233 | 8.43539 | 1224 ft | 141 kts | 74° |
| 2026-05-01 15:27 | 50.02567 | 8.44973 | 1067 ft | 140 kts | 73° |
| 2026-05-01 15:28 | 50.03264 | 8.47816 | 617 ft | 142 kts | 71° |
| 2026-05-01 15:28 | 50.03598 | 8.49228 | 399 ft | 137 kts | 72° |
| 2026-05-01 15:28 | 50.03914 | 8.50578 | 321 ft | 122 kts | 70° |
| 2026-05-01 15:29 | 50.04235 | 8.51980 | 339 ft | 26 kts | 83° |
| 2026-05-01 15:29 | 50.04233 | 8.52168 | 340 ft | 10 kts | 95° |
| 2026-05-01 15:29 | 50.04198 | 8.52517 | 347 ft | 18 kts | 99° |
| 2026-05-01 15:30 | 50.04240 | 8.52844 | 360 ft | 17 kts | 70° |
| 2026-05-01 15:31 | 50.04407 | 8.53684 | 375 ft | 23 kts | 84° |
| 2026-05-01 15:31 | 50.04438 | 8.54175 | 375 ft | 23 kts | 84° |
| 2026-05-01 15:32 | 50.04408 | 8.54648 | 368 ft | 24 kts | 124° |
| 2026-05-01 15:32 | 50.04138 | 8.54871 | 353 ft | 20 kts | 159° |
| 2026-05-01 15:33 | 50.04060 | 8.55189 | 360 ft | 18 kts | 69° |
| 2026-05-01 15:34 | 50.04123 | 8.55607 | 358 ft | 9 kts | 137° |